Svitzer Sines — CSYI4 — position and weather

sailwx.info

Track history (hours):
 
Tides and Currents Weather Stations Pressure Air Temp Water Temp Dewpoint Dewpoint Depression Visibility Wind Speed Wind Dir Waves Ship Positions

Svitzer Sines

Last reported at 2014-Jul-23 23:04 UTC. Time now 2014-Jul-24 12:57 UTC.
Position N 38°41' W 009°04'.

Length 26 m.

Type: Tug. MMSI: 263601890.

Date/timePositionNaut miles runAvg speedWind from/ knotsBaromVisibWave heightAir tempDewpointWater temp
2014-Jul-23 23:04N 38°41' W 009°04'6 0.5
2014-Jul-23 12:12N 38°41' W 009°11'0 0.0
2014-Jul-23 11:31N 38°41' W 009°11'6 0.1
2014-Jul-21 10:18N 38°41' W 009°04'3 0.2
2014-Jul-20 17:18N 38°44' W 009°06'1 1.3
2014-Jul-20 16:24N 38°43' W 009°07'1 0.2
2014-Jul-20 10:14N 38°43' W 009°06'3 0.3
2014-Jul-19 23:21N 38°42' W 009°10'0 0.0
2014-Jul-19 22:33N 38°42' W 009°10'0 0.0
2014-Jul-19 21:34N 38°42' W 009°10'0 0.0
2014-Jul-19 20:34N 38°42' W 009°10'0 0.0
2014-Jul-19 19:33N 38°42' W 009°10'0 0.0
2014-Jul-19 18:34N 38°42' W 009°10'0 0.0
2014-Jul-19 17:34N 38°42' W 009°10'0 0.0
2014-Jul-19 16:33N 38°42' W 009°10'0 0.0
2014-Jul-19 15:34N 38°42' W 009°10'0 0.0
2014-Jul-19 14:34N 38°42' W 009°10'1 0.9
2014-Jul-19 13:06N 38°41' W 009°11'1 2.3
2014-Jul-19 12:34N 38°42' W 009°10'0 0.0
2014-Jul-19 11:34N 38°42' W 009°10'0 0.0
2014-Jul-19 10:34N 38°42' W 009°10'0 0.0
2014-Jul-19 09:33N 38°42' W 009°10'0 0.1
2014-Jul-19 06:18N 38°42' W 009°10'2 0.1
2014-Jul-17 19:22N 38°40' W 009°09'0 0.4
2014-Jul-17 18:33N 38°40' W 009°08'0 0.0
2014-Jul-17 17:33N 38°40' W 009°08'2 0.1
2014-Jul-16 12:34N 38°42' W 009°10'0 0.0
2014-Jul-16 11:34N 38°42' W 009°10'0 0.0
2014-Jul-16 10:34N 38°42' W 009°10'0 0.0
2014-Jul-16 09:33N 38°42' W 009°10'0 0.0
2014-Jul-16 08:34N 38°42' W 009°10'2 1.2
2014-Jul-16 07:14N 38°42' W 009°12'2 2.4
2014-Jul-16 06:34N 38°42' W 009°10'0 0.0
2014-Jul-16 05:34N 38°42' W 009°10'0 0.0
2014-Jul-16 04:34N 38°42' W 009°10'0 0.0
2014-Jul-16 03:34N 38°42' W 009°10'0 0.0
2014-Jul-16 02:33N 38°42' W 009°10'0 0.0
2014-Jul-16 01:34N 38°42' W 009°10'0 0.0
2014-Jul-16 00:34N 38°42' W 009°10'0 0.0
2014-Jul-15 23:34N 38°42' W 009°10'0 0.0
2014-Jul-15 22:34N 38°42' W 009°10'0 0.0
2014-Jul-15 21:34N 38°42' W 009°10'0 0.0
2014-Jul-15 20:34N 38°42' W 009°10'0 0.0
2014-Jul-15 19:34N 38°42' W 009°10'0 0.0
2014-Jul-15 18:34N 38°42' W 009°10'0 0.0
2014-Jul-15 17:34N 38°42' W 009°10'2 1.8
2014-Jul-15 16:34N 38°41' W 009°08'1 0.7
2014-Jul-15 15:30N 38°40' W 009°09'2 2.4
2014-Jul-15 14:34N 38°42' W 009°10'0 0.0
2014-Jul-15 13:34N 38°42' W 009°10'0 0.0
2014-Jul-15 12:33N 38°42' W 009°10'1 0.6
2014-Jul-15 11:33N 38°42' W 009°09'1 0.2
2014-Jul-15 08:33N 38°42' W 009°10'0 0.5
2014-Jul-15 07:33N 38°42' W 009°10'1 1.4
2014-Jul-15 06:33N 38°42' W 009°12'2 1.8
2014-Jul-15 05:34N 38°42' W 009°10'0 0.0
2014-Jul-15 04:33N 38°42' W 009°10'0 0.0
2014-Jul-15 03:34N 38°42' W 009°10'0 0.0
2014-Jul-15 02:34N 38°42' W 009°10'0 0.0
2014-Jul-15 01:33N 38°42' W 009°10'0 0.0
2014-Jul-15 00:34N 38°42' W 009°10'0 0.0
2014-Jul-14 23:33N 38°42' W 009°10'0 0.0
2014-Jul-14 22:34N 38°42' W 009°10'0 0.0
2014-Jul-14 21:34N 38°42' W 009°10'0 0.0
2014-Jul-14 20:34N 38°42' W 009°10'0 0.0
2014-Jul-14 19:34N 38°42' W 009°10'0 0.0
2014-Jul-14 18:33N 38°42' W 009°10'0 0.0
2014-Jul-14 17:34N 38°42' W 009°10'0 0.0
2014-Jul-14 16:34N 38°42' W 009°10'0 0.0
2014-Jul-14 15:34N 38°42' W 009°10'0 0.0
2014-Jul-14 14:33N 38°42' W 009°10'0 0.0
2014-Jul-14 13:33N 38°42' W 009°10'0 0.0
2014-Jul-14 12:34N 38°42' W 009°10'0 0.0
2014-Jul-14 11:34N 38°42' W 009°10'0 0.0
2014-Jul-14 10:34N 38°42' W 009°10'0 0.0
2014-Jul-14 09:34N 38°42' W 009°10'0 0.0
2014-Jul-14 08:33N 38°42' W 009°10'0 0.2
2014-Jul-14 07:34N 38°42' W 009°09'2 1.8
2014-Jul-14 06:17N 38°41' W 009°12'2 2.9
2014-Jul-14 05:34N 38°42' W 009°10'0 0.0
2014-Jul-14 04:34N 38°42' W 009°10'0 0.0
2014-Jul-14 03:33N 38°42' W 009°10'0 0.0
2014-Jul-14 02:33N 38°42' W 009°10'0 0.0
2014-Jul-14 01:34N 38°42' W 009°10'0 0.0
2014-Jul-14 00:33N 38°42' W 009°10'0 0.0
2014-Jul-13 23:34N 38°42' W 009°10'  
Track history (hours):
 
Tides and Currents Weather Stations Pressure Air Temp Water Temp Dewpoint Dewpoint Depression Visibility Wind Speed Wind Dir Waves Ship Positions

Svitzer Sines

Last reported at 2014-Jul-23 23:04 UTC. Time now 2014-Jul-24 12:57 UTC.
Position N 38°41' W 009°04'.

Length 26 m.

Type: Tug. MMSI: 263601890.

Date/timePositionNaut miles runAvg speedWind from/ knotsBaromVisibWave heightAir tempDewpointWater temp
2014-Jul-23 23:04N 38°41' W 009°04'6 0.5
2014-Jul-23 12:12N 38°41' W 009°11'0 0.0
2014-Jul-23 11:31N 38°41' W 009°11'6 0.1
2014-Jul-21 10:18N 38°41' W 009°04'3 0.2
2014-Jul-20 17:18N 38°44' W 009°06'1 1.3
2014-Jul-20 16:24N 38°43' W 009°07'1 0.2
2014-Jul-20 10:14N 38°43' W 009°06'3 0.3
2014-Jul-19 23:21N 38°42' W 009°10'0 0.0
2014-Jul-19 22:33N 38°42' W 009°10'0 0.0
2014-Jul-19 21:34N 38°42' W 009°10'0 0.0
2014-Jul-19 20:34N 38°42' W 009°10'0 0.0
2014-Jul-19 19:33N 38°42' W 009°10'0 0.0
2014-Jul-19 18:34N 38°42' W 009°10'0 0.0
2014-Jul-19 17:34N 38°42' W 009°10'0 0.0
2014-Jul-19 16:33N 38°42' W 009°10'0 0.0
2014-Jul-19 15:34N 38°42' W 009°10'0 0.0
2014-Jul-19 14:34N 38°42' W 009°10'1 0.9
2014-Jul-19 13:06N 38°41' W 009°11'1 2.3
2014-Jul-19 12:34N 38°42' W 009°10'0 0.0
2014-Jul-19 11:34N 38°42' W 009°10'0 0.0
2014-Jul-19 10:34N 38°42' W 009°10'0 0.0
2014-Jul-19 09:33N 38°42' W 009°10'0 0.1
2014-Jul-19 06:18N 38°42' W 009°10'2 0.1
2014-Jul-17 19:22N 38°40' W 009°09'0 0.4
2014-Jul-17 18:33N 38°40' W 009°08'0 0.0
2014-Jul-17 17:33N 38°40' W 009°08'2 0.1
2014-Jul-16 12:34N 38°42' W 009°10'0 0.0
2014-Jul-16 11:34N 38°42' W 009°10'0 0.0
2014-Jul-16 10:34N 38°42' W 009°10'0 0.0
2014-Jul-16 09:33N 38°42' W 009°10'0 0.0
2014-Jul-16 08:34N 38°42' W 009°10'2 1.2
2014-Jul-16 07:14N 38°42' W 009°12'2 2.4
2014-Jul-16 06:34N 38°42' W 009°10'0 0.0
2014-Jul-16 05:34N 38°42' W 009°10'0 0.0
2014-Jul-16 04:34N 38°42' W 009°10'0 0.0
2014-Jul-16 03:34N 38°42' W 009°10'0 0.0
2014-Jul-16 02:33N 38°42' W 009°10'0 0.0
2014-Jul-16 01:34N 38°42' W 009°10'0 0.0
2014-Jul-16 00:34N 38°42' W 009°10'0 0.0
2014-Jul-15 23:34N 38°42' W 009°10'0 0.0
2014-Jul-15 22:34N 38°42' W 009°10'0 0.0
2014-Jul-15 21:34N 38°42' W 009°10'0 0.0
2014-Jul-15 20:34N 38°42' W 009°10'0 0.0
2014-Jul-15 19:34N 38°42' W 009°10'0 0.0
2014-Jul-15 18:34N 38°42' W 009°10'0 0.0
2014-Jul-15 17:34N 38°42' W 009°10'2 1.8
2014-Jul-15 16:34N 38°41' W 009°08'1 0.7
2014-Jul-15 15:30N 38°40' W 009°09'2 2.4
2014-Jul-15 14:34N 38°42' W 009°10'0 0.0
2014-Jul-15 13:34N 38°42' W 009°10'0 0.0
2014-Jul-15 12:33N 38°42' W 009°10'1 0.6
2014-Jul-15 11:33N 38°42' W 009°09'1 0.2
2014-Jul-15 08:33N 38°42' W 009°10'0 0.5
2014-Jul-15 07:33N 38°42' W 009°10'1 1.4
2014-Jul-15 06:33N 38°42' W 009°12'2 1.8
2014-Jul-15 05:34N 38°42' W 009°10'0 0.0
2014-Jul-15 04:33N 38°42' W 009°10'0 0.0
2014-Jul-15 03:34N 38°42' W 009°10'0 0.0
2014-Jul-15 02:34N 38°42' W 009°10'0 0.0
2014-Jul-15 01:33N 38°42' W 009°10'0 0.0
2014-Jul-15 00:34N 38°42' W 009°10'0 0.0
2014-Jul-14 23:33N 38°42' W 009°10'0 0.0
2014-Jul-14 22:34N 38°42' W 009°10'0 0.0
2014-Jul-14 21:34N 38°42' W 009°10'0 0.0
2014-Jul-14 20:34N 38°42' W 009°10'0 0.0
2014-Jul-14 19:34N 38°42' W 009°10'0 0.0
2014-Jul-14 18:33N 38°42' W 009°10'0 0.0
2014-Jul-14 17:34N 38°42' W 009°10'0 0.0
2014-Jul-14 16:34N 38°42' W 009°10'0 0.0
2014-Jul-14 15:34N 38°42' W 009°10'0 0.0
2014-Jul-14 14:33N 38°42' W 009°10'0 0.0
2014-Jul-14 13:33N 38°42' W 009°10'0 0.0
2014-Jul-14 12:34N 38°42' W 009°10'0 0.0
2014-Jul-14 11:34N 38°42' W 009°10'0 0.0
2014-Jul-14 10:34N 38°42' W 009°10'0 0.0
2014-Jul-14 09:34N 38°42' W 009°10'0 0.0
2014-Jul-14 08:33N 38°42' W 009°10'0 0.2
2014-Jul-14 07:34N 38°42' W 009°09'2 1.8
2014-Jul-14 06:17N 38°41' W 009°12'2 2.9
2014-Jul-14 05:34N 38°42' W 009°10'0 0.0
2014-Jul-14 04:34N 38°42' W 009°10'0 0.0
2014-Jul-14 03:33N 38°42' W 009°10'0 0.0
2014-Jul-14 02:33N 38°42' W 009°10'0 0.0
2014-Jul-14 01:34N 38°42' W 009°10'0 0.0
2014-Jul-14 00:33N 38°42' W 009°10'0 0.0
2014-Jul-13 23:34N 38°42' W 009°10'  

Dump ship's entire track history